Historyczne dane pomiarowe

Dodano dane terminowe – wersja testowa.

Dane z okresu 1951-2019

Wersja bazy: 1.34 [2019-03-16, lista zmian], aktualizacja planowana na 2019-04-15

Dane meteo z obszaru Polski uzyskane na podstawie danych udostępnionych przez Instytut Meteorologii i Gospodarki Wodnej – Państwowy Instytut Badawczy.

 

Wybierz Datę:    

       

TemperaturaWilgotnośćWiatrCiśnienieOpadyŚniegCzas trwania zjawisk
 Stacja t tx tn tng RH VA  wxwx mslp ppp RRR   cm mm wxwxwxwxwxwxwx
1983-08-14 12.1 16.0 8.9 9.4 73.0- 5.7 2.7---- 0.0------------
1983-08-13 12.6 21.0 10.4 9.9 93.0- 8.0 1.7---- 7.0------------
1983-08-12 16.8 21.0 14.3 14.5 85.3- 6.7 1.3---- 3.0------------
1983-08-11 15.9 22.0 11.4 11.4 87.0- 8.0 1.7---- 34.2------------
1983-08-10 15.7 22.0 11.5 11.4 87.3- 8.0 2.3---- 19.2------------
1983-08-09 16.6 22.5 10.9 12.1 88.8- 6.7 3.0---- 1.0------------
1983-08-08 17.0 21.6 12.4 12.4 84.3- 6.7 1.0---- 0.2------------
1983-08-07 15.6 20.6 11.4 11.0 72.5- 7.0 1.7---- 0.0------------
1983-08-06 14.2 19.0 5.4 6.0 83.8- 5.7 2.3---- 0.0------------
1983-08-05 11.6 15.4 7.9 9.5 70.5- 6.3 1.7---- 0.0------------
1983-08-04 12.8 20.0 8.9 12.5 83.5- 8.0 0.7---- 7.2------------
1983-08-03 19.6 24.0 11.9 12.0 75.0- 5.7 2.3---- 9.0------------
1983-08-02 18.9 28.3 8.4 8.0 64.0- 1.3 2.3---- 0.0------------
1983-08-01 16.0 25.0 6.4 1.5 81.0- 0.0 1.0---- 0.0------------
1983-07-31 15.6 21.6 9.4 9.0 80.0- 3.0 2.0---- 0.0------------
1983-07-30 14.8 19.0 7.5 7.5 83.3- 7.0 1.3---- 2.2------------
1983-07-29 16.6 22.0 8.5 10.5 81.3- 3.3 1.7---- 0.2------------
1983-07-28 20.0 26.6 13.0 12.5 75.0- 5.7 1.7---- 0.0------------
1983-07-27 19.8 26.1 11.4 11.0 86.3- 1.0 2.0---- 0.0------------
1983-07-26 17.2 22.5 11.4 12.5 81.5- 5.7 3.3---- 0.0------------
1983-07-25 13.8 17.5 9.9 10.5 83.3- 6.7 2.3---- 0.2------------
1983-07-24 13.7 16.0 10.9 11.0 87.8- 8.0 1.7---- 0.4------------
1983-07-23 13.2 18.0 9.4 10.0 80.5- 8.0 0.7---- 9.4------------
1983-07-22 11.4 15.0 5.0 4.0 78.5- 7.0 1.0---- 10.0------------
1983-07-21 10.8 15.0 6.4 7.0 81.3- 6.7 2.3---- 2.0------------
1983-07-20 17.0 24.0 12.8 13.5 78.8- 8.0 4.0---- 9.0------------
1983-07-19 19.4 29.1 10.5 10.0 82.5- 0.0 1.3---- 0.1------------
1983-07-18 18.4 26.1 10.9 11.0 77.3- 3.7 1.7---- 0.0------------
1983-07-17 18.5 24.6 10.9 10.5 85.0- 1.3 2.0---- 0.0------------
1983-07-16 15.6 25.0 6.9 8.0 78.8- 1.7 1.7---- 0.0------------
1983-07-15 17.2 21.5 13.5 13.4 83.0- 4.0 2.0---- 0.0------------
1983-07-14 16.4 19.5 8.4 7.2 88.8- 8.0 3.0---- 15.0------------
1983-07-13 15.4 20.0 11.4 11.5 97.0- 7.0 1.3---- 7.0------------
1983-07-12 15.5 18.5 11.4 11.0 85.0- 8.0 2.0---- 22.3------------
1983-07-11 16.2 20.0 10.9 10.5 80.8- 4.7 2.3---- 6.2------------
1983-07-10 16.6 23.0 8.9 8.0 89.8- 3.7 1.0---- 20.0------------
1983-07-09 16.5 23.5 6.9 6.0 79.8- 2.7 1.3---- 1.0------------
1983-07-08 16.2 24.0 6.4 6.0 76.0- 0.7 1.7---- 0.0------------
1983-07-07 15.7 25.0 8.5 8.0 70.0- 0.7 2.0---- 0.0------------
1983-07-06 16.6 25.0 8.9 10.0 67.3- 0.0 0.7---- 0.0------------
1983-07-05 16.8 25.0 7.1 7.0 76.5- 4.0 1.7---- 0.0------------
1983-07-04 15.8 22.5 7.1 7.0 79.8- 4.3 2.3---- 0.0------------
1983-07-03 16.8 20.6 13.0 13.0 79.0- 5.0 1.0---- 0.0------------
1983-07-02 15.0 20.5 8.9 14.0 82.5- 8.0 1.7---- 12.0------------
1983-07-01 16.4 24.5 8.7 8.6 76.8- 4.0 2.3---- 4.0------------
1983-06-30 12.8 21.0 2.6 2.6 78.0- 2.0 2.0---- 0.0------------
1983-06-29 13.3 16.5 10.9 11.0 68.0- 7.0 2.7---- 0.0------------
1983-06-28 16.3 21.0 13.0 13.0 87.5- 8.0 2.7---- 9.0------------
1983-06-27 17.3 24.5 8.4 7.5 67.8- 3.7 3.0---- 0.2------------
1983-06-26 18.7 25.0 10.4 10.6 69.8- 8.0 2.0---- 7.2------------
1983-06-25 17.4 23.0 5.9 5.5 72.3- 1.3 4.7---- 0.0------------
1983-06-24 13.8 23.0 4.5 4.0 62.0- 3.3 2.0---- 0.0------------
1983-06-23 10.6 19.0 1.0 0.5 73.8- 0.3 1.3---- 0.0------------
1983-06-22 13.2 19.0 9.9 8.5 61.0- 1.0 4.7---- 0.0------------
1983-06-21 17.4 22.0 12.4 13.0 87.5- 5.3 2.3---- 0.0------------
1983-06-20 15.6 19.5 11.9 11.0 90.0- 8.0 1.3---- 10.0------------
1983-06-19 15.2 20.0 8.9 10.5 85.8- 8.0 3.0---- 25.0------------
1983-06-18 10.6 12.1 8.3 8.2 96.8- 8.0 4.3---- 14.2------------
1983-06-17 9.4 11.5 6.9 8.0 70.8- 8.0 2.3---- 9.4------------
1983-06-16 10.4 14.5 7.9 10.0 96.8- 8.0 4.3---- 19.0------------
612.8 ms

 

Źródłem pochodzenia danych jest Instytut Meteorologii i Gospodarki Wodnej – Państwowy Instytut Badawczy. Dane Instytutu Meteorologii i Gospodarki Wodnej – Państwowego Instytutu Badawczego zostały przetworzone.

Dane źródłowe można odnaleźć na stronie https://dane.imgw.pl